NV25 weather

St. Rose Dominican Hospital Heliport
Henderson, Nevada, United States

Public forecast

Using degrees Fahrenheit for public forecast. Weather courtesy of forecast.io.

METAR (pilot weather report)

Closest report is Henderson Executive Airport, 8.4 nm (15.5 km) WSW. Retrieved 2019/03/23 07:56 UTC (53 minutes ago):

KHND 230756Z AUTO 21007KT 10SM CLR 12/01 A3009 RMK AO2 SLP181 T01170011 402060067 $

TAF (pilot weather forecast)

Closest forecast is Henderson Executive Airport, 8.4 nm (15.5 km) WSW. Retrieved 2019/03/23 06:22 UTC (2 hours ago):

TAF KHND 230520Z 2306/2406 18008KT P6SM FEW100 BKN200 FM231800 21014G24KT P6SM FEW100 SCT200 FM240500 21011KT P6SM FEW100